createdAt,value
2024-05-09T00:00:36.171Z,11.63
2024-05-09T00:01:41.453Z,11.25
2024-05-09T00:02:43.381Z,11.60
2024-05-09T00:03:47.029Z,11.48
2024-05-09T00:04:49.030Z,10.98
2024-05-09T00:06:52.746Z,10.80
2024-05-09T00:07:54.616Z,10.80
2024-05-09T00:08:56.455Z,10.75
2024-05-09T00:09:58.274Z,11.27
2024-05-09T00:11:00.207Z,11.38
2024-05-09T00:12:02.338Z,10.77
2024-05-09T00:13:04.483Z,11.35
2024-05-09T00:14:06.377Z,11.05
2024-05-09T00:15:08.717Z,10.77
2024-05-09T00:16:10.586Z,10.77
2024-05-09T00:17:12.608Z,10.88
2024-05-09T00:18:14.659Z,11.05
2024-05-09T00:19:16.698Z,11.07
2024-05-09T00:20:24.482Z,10.90
2024-05-09T00:21:30.549Z,11.18
2024-05-09T00:22:32.531Z,10.63
2024-05-09T00:23:34.538Z,11.00
2024-05-09T00:24:36.537Z,10.13
2024-05-09T00:25:38.696Z,11.27
2024-05-09T00:26:40.606Z,10.80
2024-05-09T00:27:42.491Z,11.02
2024-05-09T00:28:44.465Z,11.43
2024-05-09T00:29:46.570Z,11.15
2024-05-09T00:30:48.432Z,10.63
2024-05-09T00:31:50.369Z,10.80
2024-05-09T00:32:52.406Z,11.05
2024-05-09T00:33:54.652Z,10.23
2024-05-09T00:34:56.823Z,10.98
2024-05-09T00:35:58.784Z,10.77
2024-05-09T00:37:00.657Z,11.10
2024-05-09T00:38:02.639Z,11.20
2024-05-09T00:39:04.563Z,11.13
2024-05-09T00:40:09.582Z,11.32
2024-05-09T00:41:19.716Z,11.30
2024-05-09T00:42:21.797Z,11.73
2024-05-09T00:43:23.629Z,11.93
2024-05-09T00:44:25.588Z,11.18
2024-05-09T00:45:27.462Z,10.98
2024-05-09T00:46:29.541Z,11.20
2024-05-09T00:47:31.637Z,11.93
2024-05-09T00:48:34.748Z,11.32
2024-05-09T00:49:37.247Z,12.75
2024-05-09T00:50:42.322Z,11.35
2024-05-09T00:51:45.831Z,11.90
2024-05-09T00:52:48.158Z,11.68
2024-05-09T00:53:50.092Z,12.38
2024-05-09T00:54:52.053Z,13.00
2024-05-09T00:55:56.346Z,12.50
2024-05-09T00:56:58.239Z,12.05
2024-05-09T00:58:00.525Z,11.98
2024-05-09T00:59:03.405Z,11.57
2024-05-09T01:00:18.367Z,12.13
2024-05-09T01:01:29.423Z,11.05
2024-05-09T01:02:32.688Z,11.73
2024-05-09T01:03:34.834Z,11.00
2024-05-09T01:04:36.952Z,11.13
2024-05-09T01:05:39.899Z,10.60
2024-05-09T01:06:42.229Z,10.73
2024-05-09T01:07:44.272Z,10.02
2024-05-09T01:08:46.225Z,9.07
2024-05-09T01:09:48.059Z,10.25
2024-05-09T01:10:50.116Z,10.02
2024-05-09T01:11:52.073Z,10.07
2024-05-09T01:12:54.060Z,9.43
2024-05-09T01:13:55.919Z,10.85
2024-05-09T01:14:57.871Z,10.00
2024-05-09T01:15:59.852Z,10.23
2024-05-09T01:17:01.808Z,9.98
2024-05-09T01:18:10.718Z,9.90
2024-05-09T01:19:29.662Z,10.43
2024-05-09T01:20:40.133Z,11.20
2024-05-09T01:21:44.954Z,11.15
2024-05-09T01:22:47.894Z,11.52
2024-05-09T01:23:49.743Z,11.45
2024-05-09T01:24:52.334Z,11.75
2024-05-09T01:25:54.268Z,11.82
2024-05-09T01:26:56.221Z,12.73
2024-05-09T01:27:58.052Z,12.70
2024-05-09T01:28:59.956Z,12.60
2024-05-09T01:30:03.053Z,13.75
2024-05-09T01:31:05.949Z,13.43
2024-05-09T01:32:07.877Z,14.25
2024-05-09T01:33:11.655Z,13.82
2024-05-09T01:34:14.496Z,15.38
2024-05-09T01:35:16.545Z,16.00
2024-05-09T01:36:18.701Z,17.08
2024-05-09T01:37:20.597Z,15.73
2024-05-09T01:38:22.503Z,17.17
2024-05-09T01:39:24.593Z,18.65
2024-05-09T01:40:36.194Z,17.75
2024-05-09T01:41:40.926Z,18.23
2024-05-09T01:42:42.769Z,20.27
2024-05-09T01:43:44.673Z,18.73
2024-05-09T01:44:47.074Z,19.08
2024-05-09T01:45:48.958Z,19.63
2024-05-09T01:46:50.869Z,19.15
2024-05-09T01:47:52.912Z,20.63
2024-05-09T01:48:55.115Z,21.63
2024-05-09T01:49:57.102Z,20.95
2024-05-09T01:50:59.031Z,21.00
2024-05-09T01:52:00.925Z,20.88
2024-05-09T01:53:02.919Z,21.58
2024-05-09T01:54:04.811Z,19.63
2024-05-09T01:55:09.483Z,21.70
2024-05-09T01:56:11.401Z,21.33
2024-05-09T01:57:13.226Z,20.95
2024-05-09T01:58:15.061Z,21.00
2024-05-09T01:59:16.921Z,21.02
2024-05-09T02:00:30.020Z,22.02
2024-05-09T02:01:56.222Z,20.67
2024-05-09T02:02:59.835Z,20.67
2024-05-09T02:04:02.327Z,21.30
2024-05-09T02:05:04.830Z,22.33
2024-05-09T02:06:06.992Z,21.48
2024-05-09T02:07:08.983Z,20.95
2024-05-09T02:08:15.401Z,21.38
2024-05-09T02:09:17.538Z,20.65
2024-05-09T02:10:26.166Z,20.48
2024-05-09T02:11:41.224Z,20.50
2024-05-09T02:12:43.116Z,19.88
2024-05-09T02:13:44.935Z,18.65
2024-05-09T02:14:46.799Z,18.45
2024-05-09T02:15:52.429Z,18.63
2024-05-09T02:16:54.408Z,17.85
2024-05-09T02:17:59.215Z,17.95
2024-05-09T02:19:01.777Z,18.20
2024-05-09T02:20:06.059Z,17.25
2024-05-09T02:22:10.895Z,17.00
2024-05-09T02:23:13.975Z,17.48
2024-05-09T02:24:15.947Z,16.77
2024-05-09T02:25:17.779Z,16.30
2024-05-09T02:26:19.746Z,16.38
2024-05-09T02:27:21.696Z,15.65
2024-05-09T02:28:23.662Z,15.93
2024-05-09T02:29:25.614Z,16.25
2024-05-09T02:30:37.891Z,14.40
2024-05-09T02:31:42.779Z,15.52
2024-05-09T02:32:44.763Z,15.35
2024-05-09T02:33:47.091Z,13.55
2024-05-09T02:34:49.207Z,13.73
2024-05-09T02:35:51.126Z,14.45
2024-05-09T02:36:56.211Z,14.30
2024-05-09T02:37:58.095Z,14.23
2024-05-09T02:38:59.961Z,14.15
2024-05-09T02:40:01.832Z,15.10
2024-05-09T02:41:03.836Z,13.77
2024-05-09T02:42:05.855Z,14.15
2024-05-09T02:43:10.227Z,13.90
2024-05-09T02:44:13.200Z,14.07
2024-05-09T02:45:15.188Z,13.75
2024-05-09T02:46:17.000Z,13.60
2024-05-09T02:47:18.941Z,13.52
2024-05-09T02:48:21.029Z,13.57
2024-05-09T02:49:23.076Z,13.60
2024-05-09T02:50:33.531Z,13.60
2024-05-09T02:51:39.937Z,13.32
2024-05-09T02:52:41.827Z,14.40
2024-05-09T02:53:43.664Z,12.73
2024-05-09T02:54:48.036Z,13.63
2024-05-09T02:56:51.898Z,12.38
2024-05-09T02:57:53.739Z,12.55
2024-05-09T02:58:56.921Z,12.88
2024-05-09T02:59:58.804Z,13.60
2024-05-09T03:01:00.717Z,13.27
2024-05-09T03:02:02.736Z,13.40
2024-05-09T03:03:05.930Z,12.85
2024-05-09T03:04:08.152Z,13.48
2024-05-09T03:05:10.808Z,13.20
2024-05-09T03:06:12.711Z,14.05
2024-05-09T03:07:14.539Z,13.48
2024-05-09T03:08:16.437Z,13.85
2024-05-09T03:09:18.674Z,13.73
2024-05-09T03:10:25.581Z,13.95
2024-05-09T03:11:30.597Z,13.73
2024-05-09T03:12:32.994Z,13.60
2024-05-09T03:13:35.390Z,15.23
2024-05-09T03:14:37.231Z,13.98
2024-05-09T03:15:39.355Z,13.85
2024-05-09T03:16:41.218Z,13.90
2024-05-09T03:17:43.369Z,14.25
2024-05-09T03:18:45.892Z,13.80
2024-05-09T03:19:47.786Z,14.38
2024-05-09T03:20:49.813Z,14.15
2024-05-09T03:21:51.663Z,14.90
2024-05-09T03:22:56.367Z,14.43
2024-05-09T03:23:58.830Z,14.02
2024-05-09T03:25:00.670Z,14.50
2024-05-09T03:26:02.577Z,13.65
2024-05-09T03:27:04.599Z,13.30
2024-05-09T03:28:06.926Z,13.00
2024-05-09T03:29:08.894Z,12.43
2024-05-09T03:30:15.481Z,12.20
2024-05-09T03:31:20.419Z,11.45
2024-05-09T03:32:22.344Z,11.65
2024-05-09T03:33:24.585Z,11.38
2024-05-09T03:34:26.728Z,12.18
2024-05-09T03:35:28.612Z,11.93
2024-05-09T03:36:30.463Z,12.15
2024-05-09T03:37:33.025Z,11.45
2024-05-09T03:38:39.876Z,11.82
2024-05-09T03:39:41.987Z,12.20
2024-05-09T03:40:48.604Z,11.27
2024-05-09T03:41:51.068Z,12.45
2024-05-09T03:42:52.904Z,11.57
2024-05-09T03:43:54.778Z,10.80
2024-05-09T03:44:57.951Z,11.75
2024-05-09T03:45:59.825Z,11.48
2024-05-09T03:47:01.740Z,11.02
2024-05-09T03:48:03.817Z,12.50
2024-05-09T03:49:06.055Z,12.68
2024-05-09T03:50:15.140Z,12.63
2024-05-09T03:51:20.068Z,12.07
2024-05-09T03:52:21.965Z,12.80
2024-05-09T03:53:23.929Z,13.50
2024-05-09T03:54:25.881Z,13.40
2024-05-09T03:55:28.136Z,13.35
2024-05-09T03:56:30.094Z,13.23
2024-05-09T03:57:32.059Z,14.10
2024-05-09T03:58:34.146Z,13.50
2024-05-09T03:59:37.012Z,13.35
2024-05-09T04:00:40.139Z,13.50
2024-05-09T04:01:42.483Z,13.82
2024-05-09T04:02:47.553Z,14.25
2024-05-09T04:03:49.598Z,13.40
2024-05-09T04:04:51.738Z,13.63
2024-05-09T04:05:53.705Z,12.50
2024-05-09T04:06:55.554Z,12.73
2024-05-09T04:07:57.500Z,11.70
2024-05-09T04:08:59.375Z,11.93
2024-05-09T04:10:01.203Z,12.57
2024-05-09T04:11:03.160Z,12.57
2024-05-09T04:12:07.842Z,11.32
2024-05-09T04:13:11.027Z,12.07
2024-05-09T04:14:13.076Z,12.75
2024-05-09T04:15:15.325Z,12.32
2024-05-09T04:16:17.167Z,11.70
2024-05-09T04:17:19.100Z,11.75
2024-05-09T04:18:21.117Z,12.55
2024-05-09T04:19:23.091Z,11.63
2024-05-09T04:20:35.822Z,12.77
2024-05-09T04:21:41.120Z,12.90
2024-05-09T04:22:43.182Z,12.52
2024-05-09T04:23:45.067Z,12.50
2024-05-09T04:24:47.646Z,12.70
2024-05-09T04:25:49.538Z,12.32
2024-05-09T04:26:51.498Z,12.98
2024-05-09T04:27:55.965Z,12.02
2024-05-09T04:28:58.338Z,12.88
2024-05-09T04:30:00.383Z,12.73
2024-05-09T04:31:02.294Z,13.05
2024-05-09T04:32:05.226Z,12.45
2024-05-09T04:33:09.125Z,12.95
2024-05-09T04:34:13.165Z,12.45
2024-05-09T04:35:18.406Z,11.80
2024-05-09T04:36:20.244Z,11.95
2024-05-09T04:37:22.085Z,12.65
2024-05-09T04:38:24.140Z,12.65
2024-05-09T04:39:26.036Z,12.35
2024-05-09T04:40:33.362Z,11.88
2024-05-09T04:41:39.416Z,12.85
2024-05-09T04:42:41.763Z,12.93
2024-05-09T04:43:43.718Z,13.23
2024-05-09T04:44:45.550Z,12.57
2024-05-09T04:45:47.507Z,12.75
2024-05-09T04:46:49.425Z,12.48
2024-05-09T04:47:51.487Z,12.40
2024-05-09T04:48:54.316Z,12.00
2024-05-09T04:49:56.317Z,12.32
2024-05-09T04:50:58.182Z,12.50
2024-05-09T04:52:00.057Z,12.90
2024-05-09T04:53:01.961Z,12.25
2024-05-09T04:54:03.940Z,13.00
2024-05-09T04:55:06.178Z,12.90
2024-05-09T04:56:08.967Z,13.02
2024-05-09T04:57:10.788Z,12.32
2024-05-09T04:58:12.650Z,12.55
2024-05-09T04:59:14.556Z,11.82
2024-05-09T05:00:21.893Z,11.52
2024-05-09T05:01:30.834Z,12.10
2024-05-09T05:02:32.946Z,12.48
2024-05-09T05:03:35.025Z,12.88
2024-05-09T05:04:37.085Z,12.52
2024-05-09T05:05:41.233Z,12.93
2024-05-09T05:06:43.447Z,12.98
2024-05-09T05:07:45.333Z,13.73
2024-05-09T05:08:47.198Z,12.48
2024-05-09T05:09:49.114Z,14.10
2024-05-09T05:10:51.053Z,13.23
2024-05-09T05:11:53.115Z,13.70
2024-05-09T05:13:13.846Z,13.48
2024-05-09T05:14:15.842Z,13.85
2024-05-09T05:15:17.827Z,14.38
2024-05-09T05:16:19.681Z,14.52
2024-05-09T05:17:21.668Z,14.43
2024-05-09T05:18:24.492Z,14.15
2024-05-09T05:19:26.604Z,14.98
2024-05-09T05:20:33.518Z,14.10
2024-05-09T05:21:36.085Z,15.05
2024-05-09T05:22:37.960Z,15.20
2024-05-09T05:23:41.116Z,15.70
2024-05-09T05:24:43.712Z,15.07
2024-05-09T05:25:48.173Z,14.48
2024-05-09T05:26:50.338Z,14.75
2024-05-09T05:27:52.478Z,14.45
2024-05-09T05:28:54.472Z,15.60
2024-05-09T05:29:56.364Z,15.55
2024-05-09T05:30:58.295Z,16.05
2024-05-09T05:32:00.274Z,16.20
2024-05-09T05:33:02.569Z,15.95
2024-05-09T05:34:04.712Z,15.68
2024-05-09T05:35:06.722Z,15.80
2024-05-09T05:36:09.576Z,15.38
2024-05-09T05:37:11.415Z,16.27
2024-05-09T05:38:13.595Z,15.45
2024-05-09T05:39:15.484Z,15.23
2024-05-09T05:40:27.600Z,15.50
2024-05-09T05:41:34.951Z,15.50
2024-05-09T05:42:36.853Z,15.52
2024-05-09T05:43:38.708Z,15.45
2024-05-09T05:44:40.560Z,15.05
2024-05-09T05:45:42.428Z,16.05
2024-05-09T05:46:44.438Z,15.15
2024-05-09T05:47:46.650Z,15.27
2024-05-09T05:48:48.683Z,15.52
2024-05-09T05:49:50.617Z,15.05
2024-05-09T05:50:52.540Z,15.55
2024-05-09T05:51:54.451Z,15.43
2024-05-09T05:52:56.398Z,15.23
2024-05-09T05:53:58.502Z,16.50
2024-05-09T05:55:00.338Z,16.50
2024-05-09T05:56:02.300Z,15.23
2024-05-09T05:57:04.492Z,17.45
2024-05-09T05:58:10.694Z,15.88
2024-05-09T05:59:15.042Z,15.02
2024-05-09T06:00:26.068Z,16.35
2024-05-09T06:01:32.294Z,15.73
2024-05-09T06:02:35.269Z,16.95
2024-05-09T06:03:37.371Z,16.25
2024-05-09T06:04:39.870Z,15.65
2024-05-09T06:05:46.118Z,16.58
2024-05-09T06:06:48.786Z,16.55
2024-05-09T06:07:50.605Z,16.17
2024-05-09T06:08:52.525Z,16.48
2024-05-09T06:09:54.533Z,16.55
2024-05-09T06:10:56.473Z,17.27
2024-05-09T06:11:58.469Z,17.27
2024-05-09T06:13:00.366Z,16.67
2024-05-09T06:14:02.506Z,17.48
2024-05-09T06:15:04.827Z,17.35
2024-05-09T06:16:06.915Z,16.98
2024-05-09T06:17:08.884Z,17.35
2024-05-09T06:18:12.324Z,17.90
2024-05-09T06:19:14.820Z,18.58
2024-05-09T06:20:23.885Z,17.20
2024-05-09T06:21:33.495Z,23.88
2024-05-09T06:22:35.501Z,27.08
2024-05-09T06:23:47.846Z,22.63
2024-05-09T06:24:49.695Z,21.90
2024-05-09T06:25:51.685Z,21.42
2024-05-09T06:26:53.511Z,19.20
2024-05-09T06:27:55.508Z,19.42
2024-05-09T06:28:57.429Z,19.80
2024-05-09T06:29:59.296Z,21.25
2024-05-09T06:31:01.948Z,19.30
2024-05-09T06:32:04.731Z,19.80
2024-05-09T06:33:08.267Z,19.10
2024-05-09T06:34:10.705Z,24.08
2024-05-09T06:35:12.670Z,34.20
2024-05-09T06:36:14.501Z,28.92
2024-05-09T06:37:16.363Z,27.13
2024-05-09T06:38:18.269Z,26.45
2024-05-09T06:39:20.157Z,25.00
2024-05-09T06:40:25.882Z,25.90
2024-05-09T06:41:36.190Z,36.33
2024-05-09T06:42:38.078Z,55.05
2024-05-09T06:43:39.936Z,54.65
2024-05-09T06:44:41.810Z,43.58
2024-05-09T06:45:43.956Z,67.60
2024-05-09T06:46:46.752Z,45.95
2024-05-09T06:47:48.877Z,41.97
2024-05-09T06:48:51.095Z,37.53
2024-05-09T06:49:53.220Z,43.78
2024-05-09T06:50:55.164Z,53.60
2024-05-09T06:51:57.112Z,47.95
2024-05-09T06:52:58.929Z,55.33
2024-05-09T06:54:00.792Z,50.88
2024-05-09T06:55:02.631Z,57.50
2024-05-09T06:56:04.735Z,59.00
2024-05-09T06:57:06.654Z,68.53
2024-05-09T06:58:09.509Z,51.78
2024-05-09T06:59:11.571Z,51.95
2024-05-09T07:00:19.199Z,45.83
2024-05-09T07:01:29.257Z,49.22
2024-05-09T07:02:32.157Z,52.25
2024-05-09T07:03:34.899Z,67.57
2024-05-09T07:04:36.914Z,50.45
2024-05-09T07:05:38.906Z,64.72
2024-05-09T07:06:41.026Z,56.00
2024-05-09T07:07:42.862Z,63.55
2024-05-09T07:08:44.753Z,51.90
2024-05-09T07:09:46.648Z,44.42
2024-05-09T07:10:48.630Z,36.80
2024-05-09T07:12:28.199Z,31.13
2024-05-09T07:13:41.134Z,29.90
2024-05-09T07:14:58.905Z,29.95
2024-05-09T07:16:06.018Z,26.95
2024-05-09T07:17:13.164Z,27.42
2024-05-09T07:18:19.797Z,25.27
2024-05-09T07:19:42.297Z,23.55
2024-05-09T07:20:52.704Z,21.55
2024-05-09T07:22:05.528Z,21.42
2024-05-09T07:23:11.131Z,22.50
2024-05-09T07:24:13.142Z,21.00
2024-05-09T07:25:15.340Z,21.58
2024-05-09T07:26:18.448Z,19.42
2024-05-09T07:27:20.604Z,19.67
2024-05-09T07:28:22.493Z,18.50
2024-05-09T07:29:24.303Z,18.17
2024-05-09T07:30:33.004Z,17.88
2024-05-09T07:31:36.246Z,17.83
2024-05-09T07:32:38.218Z,18.45
2024-05-09T07:33:40.412Z,17.52
2024-05-09T07:34:42.422Z,17.42
2024-05-09T07:35:44.392Z,17.25
2024-05-09T07:36:46.808Z,17.20
2024-05-09T07:37:50.208Z,17.02
2024-05-09T07:38:52.182Z,17.73
2024-05-09T07:39:54.028Z,17.70
2024-05-09T07:40:55.885Z,17.88
2024-05-09T07:41:57.725Z,17.77
2024-05-09T07:42:59.609Z,18.30
2024-05-09T07:44:01.596Z,17.67
2024-05-09T07:45:20.890Z,17.73
2024-05-09T07:47:36.428Z,18.98
2024-05-09T07:49:13.667Z,17.40
2024-05-09T07:50:54.909Z,17.88
2024-05-09T07:52:23.777Z,18.23
2024-05-09T07:53:21.834Z,17.85
2024-05-09T07:53:38.189Z,17.73
2024-05-09T07:54:40.172Z,17.63
2024-05-09T07:55:42.179Z,19.52
2024-05-09T07:56:44.405Z,19.40
2024-05-09T07:57:46.398Z,19.00
2024-05-09T07:58:50.366Z,17.67
2024-05-09T07:59:52.240Z,19.25
2024-05-09T08:00:54.512Z,20.08
2024-05-09T08:01:56.589Z,20.65
2024-05-09T08:02:58.642Z,20.98
2024-05-09T08:04:00.683Z,21.48
2024-05-09T08:05:02.815Z,20.33
2024-05-09T08:06:05.086Z,22.13
2024-05-09T08:07:06.924Z,20.73
2024-05-09T08:08:09.085Z,20.65
2024-05-09T08:09:16.675Z,22.30
2024-05-09T08:10:24.678Z,21.23
2024-05-09T08:11:32.574Z,21.35
2024-05-09T08:12:34.512Z,20.35
2024-05-09T08:13:36.410Z,20.85
2024-05-09T08:14:38.234Z,21.70
2024-05-09T08:15:40.148Z,20.92
2024-05-09T08:16:42.059Z,20.80
2024-05-09T08:17:43.958Z,20.63
2024-05-09T08:18:45.926Z,20.88
2024-05-09T08:19:48.122Z,20.63
2024-05-09T08:20:50.126Z,20.48
2024-05-09T08:21:52.027Z,20.45
2024-05-09T08:22:53.846Z,20.55
2024-05-09T08:23:56.055Z,21.10
2024-05-09T08:24:58.728Z,21.33
2024-05-09T08:26:00.639Z,20.13
2024-05-09T08:27:02.589Z,19.65
2024-05-09T08:28:05.403Z,21.15
2024-05-09T08:29:07.429Z,20.42
2024-05-09T08:30:15.594Z,20.17
2024-05-09T08:31:23.746Z,20.20
2024-05-09T08:32:27.568Z,21.15
2024-05-09T08:33:31.977Z,21.25
2024-05-09T08:34:34.006Z,21.98
2024-05-09T08:35:36.531Z,21.40
2024-05-09T08:36:40.041Z,22.90
2024-05-09T08:37:43.713Z,23.35
2024-05-09T08:38:45.657Z,23.13
2024-05-09T08:39:47.557Z,23.10
2024-05-09T08:40:49.827Z,24.35
2024-05-09T08:41:51.959Z,24.65
2024-05-09T08:42:56.249Z,25.02
2024-05-09T08:44:59.919Z,24.98
2024-05-09T08:46:04.763Z,25.38
2024-05-09T08:47:09.350Z,24.95
2024-05-09T08:48:12.952Z,25.10
2024-05-09T08:49:16.540Z,25.67
2024-05-09T08:50:28.903Z,23.52
2024-05-09T08:51:37.972Z,23.38
2024-05-09T08:52:39.926Z,23.25
2024-05-09T08:53:41.859Z,22.63
2024-05-09T08:54:45.147Z,20.90
2024-05-09T08:55:47.404Z,21.30
2024-05-09T08:56:51.432Z,21.33
2024-05-09T08:57:54.197Z,21.98
2024-05-09T08:58:59.863Z,20.10
2024-05-09T09:00:09.919Z,21.02
2024-05-09T09:01:14.708Z,19.27
2024-05-09T09:02:18.461Z,19.42
2024-05-09T09:03:25.353Z,20.10
2024-05-09T09:04:28.552Z,18.80
2024-05-09T09:05:31.740Z,20.23
2024-05-09T09:06:35.502Z,19.45
2024-05-09T09:07:40.456Z,19.08
2024-05-09T09:08:42.569Z,20.17
2024-05-09T09:09:45.913Z,19.38
2024-05-09T09:10:48.955Z,19.33
2024-05-09T09:11:50.902Z,20.13
2024-05-09T09:12:59.661Z,20.40
2024-05-09T09:14:01.564Z,20.98
2024-05-09T09:15:03.568Z,19.85
2024-05-09T09:16:06.892Z,20.20
2024-05-09T09:17:16.089Z,20.00
2024-05-09T09:18:18.816Z,21.42
2024-05-09T09:19:23.627Z,21.48
2024-05-09T09:20:34.120Z,21.02
2024-05-09T09:21:38.605Z,19.83
2024-05-09T09:22:40.493Z,21.08
2024-05-09T09:23:43.499Z,21.10
2024-05-09T09:24:45.739Z,23.25
2024-05-09T09:25:47.711Z,20.20
2024-05-09T09:26:49.590Z,21.60
2024-05-09T09:27:51.710Z,20.92
2024-05-09T09:28:53.691Z,22.55
2024-05-09T09:29:57.078Z,21.90
2024-05-09T09:31:05.477Z,20.75
2024-05-09T09:32:08.754Z,21.63
2024-05-09T09:33:11.286Z,21.27
2024-05-09T09:34:13.451Z,22.30
2024-05-09T09:35:15.891Z,22.90
2024-05-09T09:36:18.619Z,21.92
2024-05-09T09:37:28.441Z,22.35
2024-05-09T09:38:31.734Z,22.25
2024-05-09T09:39:35.379Z,22.48
2024-05-09T09:40:42.872Z,21.80
2024-05-09T09:41:49.103Z,20.75
2024-05-09T09:42:57.390Z,21.38
2024-05-09T09:44:01.050Z,20.23
2024-05-09T09:45:05.537Z,19.15
2024-05-09T09:46:11.777Z,19.25
2024-05-09T09:47:16.043Z,19.23
2024-05-09T09:48:19.974Z,19.85
2024-05-09T09:49:24.273Z,19.52
2024-05-09T09:50:33.487Z,19.77
2024-05-09T09:51:37.589Z,19.52
2024-05-09T09:52:39.455Z,19.63
2024-05-09T09:53:43.730Z,17.98
2024-05-09T09:54:48.132Z,18.80
2024-05-09T09:56:52.677Z,17.13
2024-05-09T09:57:56.424Z,18.05
2024-05-09T09:59:00.269Z,18.65
2024-05-09T10:00:03.149Z,17.88
2024-05-09T10:01:07.589Z,18.48
2024-05-09T10:02:09.950Z,18.45
2024-05-09T10:03:11.954Z,19.27
2024-05-09T10:04:16.399Z,19.42
2024-05-09T10:05:18.706Z,17.92
2024-05-09T10:06:23.080Z,19.45
2024-05-09T10:08:27.234Z,18.50
2024-05-09T10:09:29.282Z,17.50
2024-05-09T10:10:34.467Z,18.05
2024-05-09T10:11:45.055Z,18.38
2024-05-09T10:13:00.932Z,18.27
2024-05-09T10:14:03.009Z,17.23
2024-05-09T10:15:09.563Z,17.35
2024-05-09T10:16:12.308Z,15.73
2024-05-09T10:17:14.964Z,16.08
2024-05-09T10:18:17.173Z,15.15
2024-05-09T10:19:26.665Z,15.48
2024-05-09T10:20:39.985Z,14.85
2024-05-09T10:21:47.001Z,13.60
2024-05-09T10:22:52.401Z,13.57
2024-05-09T10:23:57.818Z,13.07
2024-05-09T10:25:07.282Z,13.15
2024-05-09T10:26:09.182Z,13.68
2024-05-09T10:27:11.040Z,13.55
2024-05-09T10:28:13.064Z,13.40
2024-05-09T10:29:16.637Z,14.32
2024-05-09T10:30:29.765Z,14.68
2024-05-09T10:31:39.504Z,13.80
2024-05-09T10:32:41.717Z,12.75
2024-05-09T10:33:49.811Z,13.95
2024-05-09T10:35:08.285Z,14.45
2024-05-09T10:36:13.552Z,13.90
2024-05-09T10:37:15.945Z,14.48
2024-05-09T10:38:18.477Z,15.32
2024-05-09T10:39:25.375Z,15.15
2024-05-09T10:40:31.353Z,15.50
2024-05-09T10:41:34.343Z,14.45
2024-05-09T10:42:39.383Z,14.55
2024-05-09T10:43:42.093Z,15.65
2024-05-09T10:44:43.919Z,15.85
2024-05-09T10:45:45.887Z,16.20
2024-05-09T10:46:48.168Z,16.58
2024-05-09T10:47:50.158Z,17.02
2024-05-09T10:48:52.630Z,17.30
2024-05-09T10:49:56.331Z,17.98
2024-05-09T10:50:58.340Z,17.25
2024-05-09T10:52:03.679Z,17.65
2024-05-09T10:53:05.587Z,17.60
2024-05-09T10:54:07.888Z,18.50
2024-05-09T10:55:09.823Z,17.77
2024-05-09T10:56:13.938Z,18.50
2024-05-09T10:57:15.890Z,19.98
2024-05-09T10:58:18.170Z,20.25
2024-05-09T10:59:20.117Z,20.02
2024-05-09T11:00:27.801Z,19.52
2024-05-09T11:01:35.710Z,20.48
2024-05-09T11:02:37.815Z,19.90
2024-05-09T11:03:40.410Z,20.27
2024-05-09T11:04:45.294Z,20.73
2024-05-09T11:05:47.690Z,20.98
2024-05-09T11:06:49.794Z,20.27
2024-05-09T11:07:51.853Z,19.88
2024-05-09T11:08:53.937Z,20.33
2024-05-09T11:09:55.966Z,19.70
2024-05-09T11:10:59.783Z,21.10
2024-05-09T11:12:02.531Z,21.02
2024-05-09T11:13:04.800Z,21.65
2024-05-09T11:14:13.148Z,21.95
2024-05-09T11:15:16.595Z,21.45
2024-05-09T11:16:21.176Z,21.63
2024-05-09T11:17:23.558Z,21.30
2024-05-09T11:18:28.191Z,22.08
2024-05-09T11:19:39.914Z,20.15
2024-05-09T11:20:41.855Z,21.25
2024-05-09T11:21:43.779Z,21.25
2024-05-09T11:22:45.846Z,20.73
2024-05-09T11:23:47.911Z,22.23
2024-05-09T11:24:49.908Z,21.33
2024-05-09T11:25:55.776Z,23.30
2024-05-09T11:26:58.538Z,21.63
2024-05-09T11:28:01.686Z,23.02
2024-05-09T11:29:03.602Z,22.48
2024-05-09T11:30:09.166Z,22.58
2024-05-09T11:31:13.553Z,22.50
2024-05-09T11:32:16.694Z,23.27
2024-05-09T11:33:19.626Z,21.92
2024-05-09T11:34:21.668Z,23.60
2024-05-09T11:35:23.534Z,23.17
2024-05-09T11:36:25.444Z,22.98
2024-05-09T11:37:27.398Z,23.90
2024-05-09T11:38:29.275Z,24.20
2024-05-09T11:39:31.248Z,24.23
2024-05-09T11:40:34.606Z,23.42
2024-05-09T11:41:36.790Z,23.63
2024-05-09T11:42:38.666Z,22.23
2024-05-09T11:43:40.531Z,23.15
2024-05-09T11:44:42.408Z,24.80
2024-05-09T11:45:44.323Z,24.17
2024-05-09T11:46:46.361Z,26.02
2024-05-09T11:47:48.389Z,26.23
2024-05-09T11:48:51.909Z,26.33
2024-05-09T11:49:56.917Z,25.85
2024-05-09T11:50:58.906Z,26.30
2024-05-09T11:52:00.889Z,25.63
2024-05-09T11:53:02.859Z,26.58
2024-05-09T11:54:04.700Z,27.77
2024-05-09T11:55:07.534Z,24.75
2024-05-09T11:56:11.782Z,25.52
2024-05-09T11:57:13.836Z,27.73
2024-05-09T11:58:18.073Z,26.83
2024-05-09T11:59:20.641Z,26.65
2024-05-09T12:00:29.698Z,26.85
2024-05-09T12:01:38.561Z,27.23
2024-05-09T12:02:40.476Z,27.88
2024-05-09T12:03:42.376Z,28.17
2024-05-09T12:04:44.564Z,26.98
2024-05-09T12:05:46.830Z,27.98
2024-05-09T12:06:48.910Z,28.02
2024-05-09T12:07:54.170Z,28.92
2024-05-09T12:08:56.735Z,27.75
2024-05-09T12:09:58.542Z,28.17
2024-05-09T12:11:01.023Z,28.02
2024-05-09T12:12:03.142Z,28.30
2024-05-09T12:13:06.893Z,28.15
2024-05-09T12:15:12.634Z,26.90
2024-05-09T12:16:14.700Z,25.90
2024-05-09T12:17:17.053Z,27.17
2024-05-09T12:18:18.960Z,23.67
2024-05-09T12:19:20.860Z,25.45
2024-05-09T12:20:28.874Z,25.58
2024-05-09T12:21:37.720Z,23.98
2024-05-09T12:22:39.604Z,23.65
2024-05-09T12:23:41.432Z,21.70
2024-05-09T12:24:43.268Z,21.33
2024-05-09T12:25:45.174Z,19.65
2024-05-09T12:26:47.285Z,20.35
2024-05-09T12:27:49.354Z,20.17
2024-05-09T12:28:51.219Z,20.58
2024-05-09T12:29:53.105Z,18.27
2024-05-09T12:30:54.975Z,19.42
2024-05-09T12:31:57.526Z,17.88
2024-05-09T12:32:59.576Z,17.50
2024-05-09T12:34:01.610Z,16.67
2024-05-09T12:35:03.556Z,17.10
2024-05-09T12:36:05.634Z,16.73
2024-05-09T12:37:07.592Z,15.93
2024-05-09T12:38:09.526Z,15.20
2024-05-09T12:39:11.441Z,14.93
2024-05-09T12:40:22.467Z,15.02
2024-05-09T12:41:28.620Z,14.43
2024-05-09T12:42:32.540Z,13.23
2024-05-09T12:43:35.228Z,13.60
2024-05-09T12:44:37.034Z,14.35
2024-05-09T12:45:39.905Z,13.52
2024-05-09T12:46:42.130Z,14.13
2024-05-09T12:47:44.062Z,14.70
2024-05-09T12:48:46.599Z,13.52
2024-05-09T12:49:48.584Z,12.93
2024-05-09T12:50:51.815Z,13.30
2024-05-09T12:51:53.796Z,12.02
2024-05-09T12:52:55.740Z,11.68
2024-05-09T12:53:57.664Z,11.70
2024-05-09T12:54:59.592Z,10.00
2024-05-09T12:56:03.118Z,10.20
2024-05-09T12:57:06.225Z,9.80
2024-05-09T12:58:08.942Z,9.40
2024-05-09T12:59:10.926Z,8.82
2024-05-09T13:00:23.220Z,8.73
2024-05-09T13:01:29.948Z,8.32
2024-05-09T13:02:31.981Z,7.50
2024-05-09T13:03:33.996Z,7.80
2024-05-09T13:04:36.081Z,7.80
2024-05-09T13:05:38.180Z,6.55
2024-05-09T13:06:40.285Z,5.90
2024-05-09T13:07:42.283Z,6.13
2024-05-09T13:08:44.152Z,6.38
2024-05-09T13:09:46.067Z,5.53
2024-05-09T13:10:48.283Z,5.95
2024-05-09T13:11:50.262Z,5.60
2024-05-09T13:12:52.789Z,5.10
2024-05-09T13:13:54.721Z,5.28
2024-05-09T13:14:56.586Z,4.57
2024-05-09T13:15:58.630Z,4.80
2024-05-09T13:17:00.665Z,4.53
2024-05-09T13:18:04.022Z,4.50
2024-05-09T13:19:06.156Z,4.70
2024-05-09T13:20:12.012Z,4.43
2024-05-09T13:21:20.416Z,4.70
2024-05-09T13:22:22.306Z,4.35
2024-05-09T13:23:24.129Z,4.32
2024-05-09T13:24:25.955Z,3.97
2024-05-09T13:25:27.804Z,4.05
2024-05-09T13:26:29.714Z,4.20
2024-05-09T13:27:31.693Z,3.90
2024-05-09T13:28:33.823Z,4.07
2024-05-09T13:29:36.004Z,3.95
2024-05-09T13:30:40.897Z,3.90
2024-05-09T13:31:44.103Z,4.25
2024-05-09T13:32:46.038Z,4.05
2024-05-09T13:33:48.281Z,3.90
2024-05-09T13:34:50.318Z,3.80
2024-05-09T13:35:52.292Z,4.10
2024-05-09T13:36:54.294Z,4.68
2024-05-09T13:37:56.378Z,4.55
2024-05-09T13:38:59.373Z,4.68
2024-05-09T13:40:01.466Z,4.15
2024-05-09T13:41:03.362Z,4.35
2024-05-09T13:42:05.460Z,4.00
2024-05-09T13:43:07.348Z,3.95
2024-05-09T13:44:09.873Z,3.83
2024-05-09T13:45:11.778Z,4.15
2024-05-09T13:46:13.752Z,4.07
2024-05-09T13:47:15.824Z,4.30
2024-05-09T13:48:18.025Z,4.25